Time;durP1;ratioP1;P1;durP2;ratioP2;P2;SDS_P1;SDS_P2;PMS_P1;PMS_P2;Temp;Humidity;BMP_temperature;BMP_pressure;BME280_temperature;BME280_humidity;BME280_pressure;Samples;Min_cycle;Max_cycle;Signal;HPM_P1;HPM_P2
2023/03/26 00:00:53;;;;;;;3.97;1.77;;;23.80;43.60;;;;;;6155793;28;80891;-68
2023/03/26 00:03:53;;;;;;;3.03;2.10;;;23.80;43.60;;;;;;6154977;28;80578;-67
2023/03/26 00:06:54;;;;;;;2.97;1.73;;;23.80;43.50;;;;;;6153997;28;80579;-69
2023/03/26 00:09:56;;;;;;;3.15;1.85;;;23.80;43.60;;;;;;6153508;28;80722;-67
2023/03/26 00:12:57;;;;;;;4.22;1.67;;;23.80;43.50;;;;;;6137735;28;81545;-69
2023/03/26 00:15:57;;;;;;;2.70;2.05;;;23.80;43.70;;;;;;6155163;28;80161;-68
2023/03/26 00:18:58;;;;;;;2.47;1.75;;;23.80;43.50;;;;;;6155552;28;81077;-68
2023/03/26 00:21:59;;;;;;;2.72;1.70;;;23.80;43.60;;;;;;6148487;28;81295;-62
2023/03/26 00:25:00;;;;;;;2.03;1.63;;;23.70;43.40;;;;;;6154612;28;80415;-62
2023/03/26 00:28:02;;;;;;;1.63;1.40;;;23.70;43.50;;;;;;6154097;28;81332;-62
2023/03/26 00:31:03;;;;;;;3.03;1.65;;;23.70;43.40;;;;;;6117034;28;83323;-62
2023/03/26 00:34:04;;;;;;;3.10;1.73;;;23.70;43.50;;;;;;6150443;28;80726;-62
2023/03/26 00:37:05;;;;;;;2.83;1.70;;;23.70;43.50;;;;;;6153070;28;80503;-62
2023/03/26 00:40:06;;;;;;;2.55;1.75;;;23.70;43.20;;;;;;6155813;28;80330;-69
2023/03/26 00:43:17;;;;;;;3.60;1.58;;;23.70;43.40;;;;;;6134962;28;86235;-66
2023/03/26 00:46:18;;;;;;;1.33;1.20;;;23.70;43.40;;;;;;6136633;28;81776;-65
2023/03/26 00:49:18;;;;;;;2.90;1.55;;;23.70;43.20;;;;;;6153845;28;80407;-65
2023/03/26 00:52:19;;;;;;;2.50;1.75;;;23.70;43.30;;;;;;6154328;28;80403;-66
2023/03/26 00:55:19;;;;;;;2.22;1.55;;;23.70;43.20;;;;;;6153840;28;80268;-68
2023/03/26 00:58:21;;;;;;;2.13;1.73;;;23.70;43.30;;;;;;6139940;28;84010;-60
2023/03/26 01:01:26;;;;;;;1.35;1.20;;;23.70;43.30;;;;;;6135770;28;81849;-60
2023/03/26 01:04:29;;;;;;;1.23;1.13;;;23.70;43.40;;;;;;6136392;28;84118;-61
2023/03/26 01:07:29;;;;;;;1.50;1.20;;;23.70;43.30;;;;;;6130453;28;83233;-61
2023/03/26 01:10:37;;;;;;;2.70;1.38;;;23.70;43.40;;;;;;6090473;28;83349;-61
2023/03/26 01:13:38;;;;;;;2.60;1.50;;;23.70;43.50;;;;;;6113188;28;82276;-61
2023/03/26 01:16:38;;;;;;;3.55;1.80;;;23.70;43.40;;;;;;6130527;28;80043;-69
2023/03/26 01:19:39;;;;;;;1.50;0.90;;;23.60;43.50;;;;;;6128849;28;82069;-70
2023/03/26 01:22:40;;;;;;;1.85;1.20;;;23.70;43.60;;;;;;6124696;28;81049;-72
2023/03/26 01:25:40;;;;;;;2.28;1.20;;;23.70;43.80;;;;;;6112071;28;80709;-73
2023/03/26 01:28:41;;;;;;;2.40;1.60;;;23.70;43.70;;;;;;6130819;28;80209;-70
2023/03/26 01:31:42;;;;;;;1.30;1.20;;;23.60;43.60;;;;;;6131413;28;81313;-65
2023/03/26 01:34:42;;;;;;;2.10;1.00;;;23.60;43.80;;;;;;6120303;28;82208;-59
2023/03/26 01:37:45;;;;;;;2.78;1.45;;;23.60;43.80;;;;;;6151751;28;81269;-59
2023/03/26 01:40:48;;;;;;;1.45;1.10;;;23.60;43.80;;;;;;6153725;28;81365;-59
2023/03/26 01:43:49;;;;;;;1.48;1.15;;;23.60;43.70;;;;;;6153436;28;80411;-58
2023/03/26 01:46:49;;;;;;;1.77;1.33;;;23.60;43.60;;;;;;6154087;28;80379;-60
2023/03/26 01:49:50;;;;;;;2.20;1.23;;;23.60;43.80;;;;;;6135887;28;83247;-61
2023/03/26 01:52:50;;;;;;;2.13;1.38;;;23.60;43.70;;;;;;6153466;28;80169;-61
2023/03/26 01:55:52;;;;;;;1.77;0.93;;;23.60;43.50;;;;;;6134590;28;82657;-68
2023/03/26 01:58:53;;;;;;;1.98;1.10;;;23.60;43.80;;;;;;6136106;28;83011;-69
2023/03/26 02:01:53;;;;;;;7.85;1.58;;;23.60;43.80;;;;;;6156970;28;80771;-69
2023/03/26 02:04:54;;;;;;;1.27;0.90;;;23.60;43.80;;;;;;6153314;28;81250;-67
2023/03/26 02:07:57;;;;;;;1.55;1.20;;;23.60;43.80;;;;;;6153393;28;80254;-67
2023/03/26 02:10:57;;;;;;;1.35;1.20;;;23.60;43.60;;;;;;6153616;28;80207;-67
2023/03/26 02:13:58;;;;;;;2.30;1.33;;;23.60;43.80;;;;;;6135126;28;83621;-61
2023/03/26 02:16:59;;;;;;;2.00;1.23;;;23.60;43.60;;;;;;6152389;28;81462;-61
2023/03/26 02:20:09;;;;;;;1.83;1.10;;;23.60;43.90;;;;;;6153250;28;80941;-62
2023/03/26 02:23:10;;;;;;;2.10;1.27;;;23.60;43.60;;;;;;6127613;28;83180;-62
2023/03/26 02:26:11;;;;;;;1.15;1.00;;;23.60;43.90;;;;;;6134623;28;82881;-62
2023/03/26 02:29:25;;;;;;;1.30;0.90;;;23.60;43.90;;;;;;6134497;28;81387;-62
2023/03/26 02:32:26;;;;;;;1.98;1.20;;;23.60;43.90;;;;;;6136053;28;87614;-66
2023/03/26 02:35:26;;;;;;;2.25;1.27;;;23.60;43.70;;;;;;6147913;28;80414;-66
2023/03/26 02:38:33;;;;;;;0.80;0.80;;;23.60;43.80;;;;;;6134558;28;82319;-66
2023/03/26 02:41:36;;;;;;;1.27;0.90;;;23.60;43.70;;;;;;6135381;28;80475;-65
2023/03/26 02:44:42;;;;;;;1.48;1.02;;;23.60;43.60;;;;;;6133704;28;81436;-64
2023/03/26 02:47:52;;;;;;;1.30;0.98;;;23.60;43.60;;;;;;6151410;28;84660;-59
2023/03/26 02:51:11;;;;;;;1.10;1.00;;;23.60;44.00;;;;;;6139081;28;80717;-64
2023/03/26 02:54:44;;;;;;;0.70;0.70;;;23.60;43.80;;;;;;6124218;28;80387;-65
2023/03/26 02:57:56;;;;;;;1.40;1.00;;;23.60;43.60;;;;;;6134738;28;82800;-70
2023/03/26 03:01:02;;;;;;;1.20;1.10;;;23.60;43.70;;;;;;6151086;28;83322;-64
2023/03/26 03:04:14;;;;;;;1.88;0.88;;;23.60;43.80;;;;;;6135167;28;87345;-67
2023/03/26 03:07:15;;;;;;;0.95;0.88;;;23.60;43.80;;;;;;6151539;28;81969;-65
2023/03/26 03:10:20;;;;;;;1.65;1.10;;;23.60;43.80;;;;;;6150693;28;81477;-67
2023/03/26 03:13:44;;;;;;;1.25;0.90;;;23.60;44.00;;;;;;6133805;28;83319;-67
2023/03/26 03:16:46;;;;;;;1.08;0.88;;;23.60;43.80;;;;;;6134550;28;81643;-66
2023/03/26 03:19:47;;;;;;;1.48;0.95;;;23.60;43.80;;;;;;6139770;28;81875;-67
2023/03/26 03:22:47;;;;;;;1.10;0.98;;;23.50;44.00;;;;;;6140632;28;81951;-66
2023/03/26 03:25:51;;;;;;;1.00;0.85;;;23.50;43.90;;;;;;6151581;28;80593;-63
2023/03/26 03:28:51;;;;;;;2.03;1.25;;;23.50;43.80;;;;;;6126975;28;82345;-62
2023/03/26 03:31:52;;;;;;;1.45;0.98;;;23.60;43.40;;;;;;6148976;28;85788;-62
2023/03/26 03:35:08;;;;;;;1.85;1.08;;;23.60;43.00;;;;;;6135444;28;83115;-62
2023/03/26 03:38:09;;;;;;;1.25;1.13;;;23.50;42.70;;;;;;6136652;28;83372;-62
2023/03/26 03:41:18;;;;;;;1.02;0.80;;;23.60;42.60;;;;;;6121384;28;81358;-60
2023/03/26 03:44:20;;;;;;;2.53;0.90;;;23.60;42.60;;;;;;6119367;28;82520;-61
2023/03/26 03:47:21;;;;;;;1.80;1.10;;;23.60;42.40;;;;;;6130806;28;80616;-61
2023/03/26 03:50:23;;;;;;;1.10;0.88;;;23.70;42.40;;;;;;6116499;28;83143;-61
2023/03/26 03:53:40;;;;;;;2.13;1.13;;;23.70;42.40;;;;;;6117156;28;83028;-61
2023/03/26 03:56:44;;;;;;;2.20;1.10;;;23.70;42.30;;;;;;6129807;28;83802;-62
2023/03/26 04:00:04;;;;;;;1.08;0.90;;;23.80;42.30;;;;;;6149887;28;81975;-60
2023/03/26 04:03:15;;;;;;;1.02;0.93;;;23.80;42.30;;;;;;6153677;28;80855;-61
2023/03/26 04:06:17;;;;;;;1.02;0.90;;;23.80;42.30;;;;;;6134529;28;81447;-63
2023/03/26 04:09:18;;;;;;;0.95;0.90;;;23.80;42.30;;;;;;6134954;28;81599;-64
2023/03/26 04:12:21;;;;;;;1.63;1.10;;;23.80;42.20;;;;;;6116993;28;87486;-63
2023/03/26 04:15:41;;;;;;;1.08;0.70;;;23.80;42.30;;;;;;6126773;28;81640;-60
2023/03/26 04:18:44;;;;;;;1.10;0.90;;;23.80;42.30;;;;;;6142422;28;82106;-61
2023/03/26 04:21:49;;;;;;;4.22;1.08;;;23.80;42.40;;;;;;6151671;28;81568;-67
2023/03/26 04:24:53;;;;;;;1.85;1.17;;;23.80;42.40;;;;;;6129854;28;83334;-68
2023/03/26 04:28:05;;;;;;;2.00;1.00;;;23.90;42.60;;;;;;6111070;28;82917;-66
2023/03/26 04:31:39;;;;;;;2.35;1.40;;;23.80;42.40;;;;;;6131752;28;87805;-65
2023/03/26 04:34:44;;;;;;;3.13;1.60;;;23.80;42.40;;;;;;6130235;28;83132;-65
2023/03/26 04:37:46;;;;;;;2.03;1.23;;;23.80;42.40;;;;;;6136807;28;83416;-66
2023/03/26 04:40:50;;;;;;;1.00;0.90;;;23.80;42.40;;;;;;6133111;28;83104;-66
2023/03/26 04:44:21;;;;;;;4.47;1.30;;;23.90;42.30;;;;;;6130845;28;83160;-67
2023/03/26 04:47:45;;;;;;;1.40;1.10;;;23.90;42.20;;;;;;6121450;28;83866;-66
2023/03/26 04:50:46;;;;;;;4.80;1.02;;;23.80;42.00;;;;;;6133567;28;83149;-68
2023/03/26 04:53:47;;;;;;;2.40;1.10;;;23.80;41.80;;;;;;6108332;28;82393;-69
2023/03/26 04:57:03;;;;;;;2.00;1.08;;;23.80;41.90;;;;;;6130728;28;83018;-62
2023/03/26 05:00:24;;;;;;;2.15;1.13;;;23.80;41.90;;;;;;6131502;28;82029;-66
2023/03/26 05:03:31;;;;;;;2.92;1.27;;;23.80;41.80;;;;;;6123078;28;83523;-65
2023/03/26 05:06:37;;;;;;;1.98;1.13;;;23.80;41.80;;;;;;6146237;28;81788;-62
2023/03/26 05:09:44;;;;;;;1.42;1.20;;;23.80;41.70;;;;;;6109040;28;80647;-62
2023/03/26 05:12:56;;;;;;;2.90;1.40;;;23.70;41.70;;;;;;6090156;28;83397;-63
2023/03/26 05:16:00;;;;;;;1.25;1.00;;;23.80;41.60;;;;;;6131320;28;83473;-59
2023/03/26 05:19:13;;;;;;;3.58;1.52;;;23.70;41.60;;;;;;6130833;28;86963;-59
2023/03/26 05:22:14;;;;;;;1.30;0.98;;;23.70;41.50;;;;;;6125588;28;82921;-59
2023/03/26 05:25:31;;;;;;;2.70;1.15;;;23.70;41.50;;;;;;6134533;28;82431;-59
2023/03/26 05:28:34;;;;;;;2.42;1.40;;;23.70;41.60;;;;;;6146538;28;83501;-59
2023/03/26 05:31:41;;;;;;;1.95;1.17;;;23.70;41.40;;;;;;6139150;28;81400;-59
2023/03/26 05:34:42;;;;;;;3.38;1.02;;;23.70;41.50;;;;;;6121197;28;81259;-61
2023/03/26 05:37:43;;;;;;;1.20;0.82;;;23.70;41.60;;;;;;6114716;28;82698;-63
2023/03/26 05:40:43;;;;;;;1.42;1.00;;;23.60;41.90;;;;;;6114364;28;83624;-65
2023/03/26 05:43:50;;;;;;;5.88;1.00;;;23.70;42.00;;;;;;6116810;28;83468;-68
2023/03/26 05:46:57;;;;;;;2.15;1.27;;;23.70;42.30;;;;;;6132626;28;81981;-64
2023/03/26 05:50:00;;;;;;;7.90;1.92;;;23.70;42.30;;;;;;6133956;28;82057;-69
2023/03/26 05:53:01;;;;;;;8.05;1.30;;;23.70;42.40;;;;;;6126648;28;82875;-68
2023/03/26 05:56:20;;;;;;;6.78;1.40;;;23.70;42.30;;;;;;6149483;28;80167;-66
2023/03/26 05:59:39;;;;;;;4.10;1.15;;;23.60;42.70;;;;;;6149595;28;81767;-69
2023/03/26 06:02:58;;;;;;;4.80;1.17;;;23.70;42.70;;;;;;6147027;28;81165;-67
2023/03/26 06:06:24;;;;;;;2.50;1.30;;;23.70;42.80;;;;;;6148162;28;80420;-67
2023/03/26 06:09:31;;;;;;;2.17;1.15;;;23.70;43.10;;;;;;6106184;28;81667;-66
2023/03/26 06:12:32;;;;;;;4.38;1.02;;;23.70;43.10;;;;;;6143231;28;80541;-66
2023/03/26 06:15:33;;;;;;;4.50;1.25;;;23.70;43.00;;;;;;6124717;28;83577;-72
2023/03/26 06:18:37;;;;;;;4.78;1.90;;;23.60;43.10;;;;;;6111679;28;83644;-72
2023/03/26 06:21:55;;;;;;;7.68;2.75;;;23.70;43.30;;;;;;6125382;28;83865;-78
2023/03/26 06:25:00;;;;;;;10.57;4.93;;;23.70;43.60;;;;;;6107273;28;86494;-78
2023/03/26 06:28:19;;;;;;;7.35;4.60;;;23.70;44.40;;;;;;6128058;28;83550;-72
2023/03/26 06:31:38;;;;;;;7.97;4.15;;;23.80;44.70;;;;;;6128137;28;83324;-65
2023/03/26 06:34:51;;;;;;;11.65;5.05;;;23.80;44.70;;;;;;6145486;28;80926;-65
2023/03/26 06:37:52;;;;;;;15.38;7.13;;;23.80;44.60;;;;;;6123564;28;82933;-62
2023/03/26 06:40:52;;;;;;;13.18;6.40;;;23.80;45.10;;;;;;6127039;28;83266;-61
2023/03/26 06:43:59;;;;;;;17.50;6.53;;;23.70;45.40;;;;;;6146320;28;83768;-62
2023/03/26 06:47:18;;;;;;;12.32;7.82;;;23.80;45.70;;;;;;6146950;28;83765;-63
2023/03/26 06:50:28;;;;;;;16.60;8.93;;;23.80;45.50;;;;;;6137439;28;85203;-64
2023/03/26 06:53:40;;;;;;;15.15;8.60;;;23.80;45.70;;;;;;6143689;28;80759;-66
2023/03/26 06:57:04;;;;;;;16.00;8.55;;;23.80;46.20;;;;;;6086779;28;85079;-63
2023/03/26 07:00:23;;;;;;;13.98;7.78;;;23.90;46.10;;;;;;6140240;28;82256;-61
2023/03/26 07:03:43;;;;;;;12.25;6.72;;;23.90;46.50;;;;;;6146864;28;80454;-58
2023/03/26 07:07:02;;;;;;;12.52;7.38;;;24.00;46.00;;;;;;6148380;28;81555;-61
2023/03/26 07:10:21;;;;;;;11.75;6.38;;;24.00;46.00;;;;;;6149503;28;84653;-59
2023/03/26 07:13:40;;;;;;;42.45;6.88;;;23.90;45.70;;;;;;6146704;28;80818;-68
2023/03/26 07:16:59;;;;;;;8.38;4.78;;;24.00;45.50;;;;;;6141299;28;80133;-70
2023/03/26 07:20:08;;;;;;;9.68;5.07;;;24.00;45.00;;;;;;6131865;28;82478;-69
2023/03/26 07:23:08;;;;;;;15.60;5.97;;;24.00;45.10;;;;;;6140978;28;80669;-66
2023/03/26 07:26:19;;;;;;;9.95;5.00;;;24.00;45.10;;;;;;6146994;28;80796;-66
2023/03/26 07:29:31;;;;;;;14.05;5.22;;;24.00;45.10;;;;;;6146462;28;82758;-71
2023/03/26 07:32:43;;;;;;;8.52;4.95;;;24.00;45.20;;;;;;6149856;28;80569;-69
2023/03/26 07:35:55;;;;;;;13.80;5.80;;;24.00;45.10;;;;;;6130713;28;81437;-74
2023/03/26 07:39:19;;;;;;;12.52;4.40;;;24.00;45.10;;;;;;6103044;28;81088;-72
2023/03/26 07:42:38;;;;;;;8.02;4.05;;;24.00;45.00;;;;;;6152951;28;80528;-71
2023/03/26 07:45:57;;;;;;;10.07;4.15;;;24.00;44.80;;;;;;6151269;28;80564;-71
2023/03/26 07:49:03;;;;;;;6.85;3.40;;;24.10;44.70;;;;;;6136468;28;82768;-60
2023/03/26 07:52:25;;;;;;;8.85;3.47;;;24.10;44.80;;;;;;6129690;28;86524;-69
2023/03/26 07:55:50;;;;;;;7.45;3.60;;;24.10;45.10;;;;;;6131766;28;82526;-64
2023/03/26 07:59:17;;;;;;;7.65;3.78;;;24.20;45.00;;;;;;6118319;28;83264;-66
2023/03/26 08:02:31;;;;;;;7.43;3.13;;;24.20;45.20;;;;;;6117541;28;86919;-62
2023/03/26 08:05:46;;;;;;;9.52;3.35;;;24.20;45.20;;;;;;6131295;28;82608;-65
2023/03/26 08:08:47;;;;;;;7.05;3.47;;;24.30;45.10;;;;;;6149226;28;80901;-66
2023/03/26 08:12:17;;;;;;;8.82;3.13;;;24.30;45.00;;;;;;6121366;28;80779;-62
2023/03/26 08:15:17;;;;;;;5.85;2.80;;;24.30;44.80;;;;;;6151258;28;80735;-59
2023/03/26 08:18:18;;;;;;;7.00;2.97;;;24.30;44.70;;;;;;6149306;28;82312;-60
2023/03/26 08:21:19;;;;;;;7.82;3.10;;;24.30;45.20;;;;;;6150081;28;81632;-61
2023/03/26 08:24:21;;;;;;;6.63;2.95;;;24.30;44.50;;;;;;6125017;28;83249;-69
2023/03/26 08:27:21;;;;;;;6.90;3.00;;;24.30;44.60;;;;;;6127689;28;81726;-66
2023/03/26 08:30:22;;;;;;;7.22;2.75;;;24.30;44.90;;;;;;6151690;28;80799;-66
2023/03/26 08:33:22;;;;;;;6.85;3.08;;;24.30;45.20;;;;;;6150956;28;80321;-66
2023/03/26 08:36:23;;;;;;;5.10;2.38;;;24.40;45.40;;;;;;6151672;28;81327;-66
2023/03/26 08:39:23;;;;;;;5.22;2.55;;;24.30;45.90;;;;;;6151873;28;81162;-68
2023/03/26 08:42:24;;;;;;;7.38;3.33;;;24.30;45.90;;;;;;6150194;28;81107;-68
2023/03/26 08:45:25;;;;;;;7.10;2.30;;;24.30;45.80;;;;;;6151600;28;80204;-66
2023/03/26 08:48:26;;;;;;;4.15;2.35;;;24.40;45.60;;;;;;6150016;28;80662;-65
2023/03/26 08:51:26;;;;;;;4.53;2.50;;;24.40;45.50;;;;;;6149485;28;81763;-65
2023/03/26 08:54:27;;;;;;;6.07;2.53;;;24.30;45.40;;;;;;6145830;28;82786;-58
2023/03/26 08:57:27;;;;;;;9.82;2.55;;;24.30;45.80;;;;;;6152296;28;80499;-59
2023/03/26 09:00:28;;;;;;;8.50;2.33;;;24.30;45.80;;;;;;6141874;28;83104;-60
2023/03/26 09:03:29;;;;;;;8.48;2.55;;;24.20;46.60;;;;;;6150239;28;81457;-61
2023/03/26 09:06:29;;;;;;;4.95;2.20;;;24.20;47.70;;;;;;6153361;28;80537;-61
2023/03/26 09:09:30;;;;;;;8.60;2.08;;;24.20;48.70;;;;;;6145233;28;84987;-64
2023/03/26 09:12:31;;;;;;;6.75;2.53;;;24.20;50.00;;;;;;6149885;28;81080;-67
2023/03/26 09:15:31;;;;;;;5.10;2.10;;;24.30;49.80;;;;;;6150101;28;83034;-66
2023/03/26 09:18:33;;;;;;;7.15;2.22;;;24.30;49.60;;;;;;6161775;28;83316;-66
2023/03/26 09:21:34;;;;;;;4.78;1.88;;;24.40;50.10;;;;;;6146824;28;81749;-67
2023/03/26 09:24:34;;;;;;;3.65;1.58;;;24.40;50.10;;;;;;6147871;28;80112;-67
2023/03/26 09:27:35;;;;;;;12.15;2.17;;;24.40;50.30;;;;;;6149104;28;83517;-66
2023/03/26 09:30:36;;;;;;;3.58;1.80;;;24.50;50.70;;;;;;6147982;28;81314;-66
2023/03/26 09:33:36;;;;;;;6.60;1.95;;;24.50;50.80;;;;;;6151410;28;80334;-64
2023/03/26 09:36:38;;;;;;;2.83;1.83;;;24.50;51.20;;;;;;6140262;28;82635;-64
2023/03/26 09:39:38;;;;;;;3.80;1.67;;;24.50;51.80;;;;;;6148861;28;82361;-68
2023/03/26 09:42:39;;;;;;;2.47;1.60;;;24.60;52.50;;;;;;6124518;28;85387;-65
2023/03/26 09:45:39;;;;;;;2.08;1.70;;;24.60;52.60;;;;;;6140751;28;81091;-64
2023/03/26 09:48:40;;;;;;;3.28;1.70;;;24.60;52.10;;;;;;6150765;28;81168;-62
2023/03/26 09:51:40;;;;;;;5.38;1.77;;;24.50;52.30;;;;;;6147418;28;81637;-61
2023/03/26 09:54:43;;;;;;;2.05;1.30;;;24.60;52.90;;;;;;6151867;28;81117;-63
2023/03/26 09:57:45;;;;;;;3.45;1.60;;;24.60;52.10;;;;;;6149210;28;83017;-65
2023/03/26 10:00:45;;;;;;;2.63;1.27;;;24.60;51.40;;;;;;6150863;28;80854;-63
2023/03/26 10:03:46;;;;;;;3.22;1.50;;;24.60;50.40;;;;;;6151292;28;80535;-62
2023/03/26 10:06:46;;;;;;;1.90;1.30;;;24.50;49.70;;;;;;6135570;28;83025;-62
2023/03/26 10:09:49;;;;;;;5.93;1.75;;;24.50;49.00;;;;;;6152260;28;80703;-69
2023/03/26 10:12:50;;;;;;;1.75;1.13;;;24.40;48.60;;;;;;6152847;28;80867;-61
2023/03/26 10:15:50;;;;;;;2.45;1.50;;;24.40;48.10;;;;;;6151928;28;80799;-58
2023/03/26 10:18:51;;;;;;;2.78;1.20;;;24.40;46.70;;;;;;6148949;28;80930;-66
2023/03/26 10:21:51;;;;;;;2.50;1.17;;;24.40;46.90;;;;;;6146354;28;80849;-66
2023/03/26 10:24:52;;;;;;;2.55;1.60;;;24.40;46.90;;;;;;6151118;28;83617;-67
2023/03/26 10:27:52;;;;;;;2.22;1.52;;;24.50;47.00;;;;;;6151903;28;80872;-61
2023/03/26 10:30:53;;;;;;;4.22;1.20;;;24.50;44.90;;;;;;6152734;28;82346;-60
2023/03/26 10:33:54;;;;;;;2.88;1.30;;;24.50;44.30;;;;;;6152285;28;80255;-60
2023/03/26 10:36:54;;;;;;;2.05;1.45;;;24.50;43.80;;;;;;6129369;28;83886;-59
2023/03/26 10:39:55;;;;;;;2.05;0.98;;;24.50;44.10;;;;;;6130861;28;84084;-59
2023/03/26 10:42:55;;;;;;;2.28;1.20;;;24.40;44.20;;;;;;6142401;28;80519;-66
2023/03/26 10:45:56;;;;;;;2.58;1.52;;;24.40;44.10;;;;;;6148931;28;85621;-69
2023/03/26 10:48:59;;;;;;;7.00;1.63;;;24.40;43.50;;;;;;6133753;28;82008;-61
2023/03/26 10:52:00;;;;;;;6.07;1.65;;;24.40;43.90;;;;;;6145545;28;81699;-65
2023/03/26 10:55:01;;;;;;;2.78;1.30;;;24.40;43.60;;;;;;6133553;28;82529;-66
2023/03/26 10:58:01;;;;;;;2.53;1.23;;;24.40;43.40;;;;;;6148552;28;84334;-68
2023/03/26 11:01:02;;;;;;;1.95;1.23;;;24.40;43.20;;;;;;6132183;28;80739;-66
2023/03/26 11:04:02;;;;;;;3.33;1.33;;;24.40;43.20;;;;;;6112755;28;82209;-66
2023/03/26 11:07:04;;;;;;;3.03;1.50;;;24.40;42.40;;;;;;6100791;28;81064;-69
2023/03/26 11:10:04;;;;;;;3.17;1.20;;;24.40;41.70;;;;;;6118468;28;80521;-64
2023/03/26 11:13:05;;;;;;;6.90;1.73;;;24.40;42.10;;;;;;6124138;28;83180;-69
2023/03/26 11:16:05;;;;;;;4.10;1.10;;;24.30;41.40;;;;;;6124013;28;83311;-62
2023/03/26 11:19:06;;;;;;;2.65;1.38;;;24.30;41.50;;;;;;6117070;28;83750;-59
2023/03/26 11:22:07;;;;;;;2.78;1.40;;;24.30;41.40;;;;;;6124746;28;80935;-65
2023/03/26 11:25:07;;;;;;;2.75;1.30;;;24.30;41.10;;;;;;6123261;28;83080;-64
2023/03/26 11:28:08;;;;;;;4.82;1.35;;;24.30;41.50;;;;;;6124856;28;82762;-61
2023/03/26 11:31:08;;;;;;;2.92;1.30;;;24.40;41.00;;;;;;6122623;28;80331;-70
2023/03/26 11:34:09;;;;;;;1.65;1.30;;;24.50;40.80;;;;;;6113866;28;82989;-72
2023/03/26 11:37:17;;;;;;;1.65;0.98;;;23.40;36.50;;;;;;6121550;28;80976;-62
2023/03/26 11:40:20;;;;;;;4.68;1.30;;;23.00;37.60;;;;;;6106817;28;85625;-64
2023/03/26 11:43:20;;;;;;;4.90;1.02;;;23.20;37.40;;;;;;6120644;28;85600;-62
2023/03/26 11:46:21;;;;;;;3.30;0.82;;;22.80;37.10;;;;;;6122036;28;88004;-61
2023/03/26 11:49:21;;;;;;;2.75;1.30;;;22.80;37.40;;;;;;6118766;28;81676;-62
2023/03/26 11:52:23;;;;;;;1.88;0.93;;;22.60;36.20;;;;;;6104678;28;83268;-63
2023/03/26 11:55:23;;;;;;;4.28;1.17;;;22.30;36.60;;;;;;6122721;28;81808;-62
2023/03/26 11:58:24;;;;;;;2.47;1.20;;;21.60;36.70;;;;;;6120775;28;80812;-62
2023/03/26 12:01:29;;;;;;;2.63;1.50;;;22.10;37.50;;;;;;6142188;28;80444;-69
2023/03/26 12:04:30;;;;;;;2.42;1.70;;;21.90;36.90;;;;;;6147945;28;82088;-67
2023/03/26 12:07:31;;;;;;;3.55;1.48;;;22.20;37.00;;;;;;6145709;28;82930;-72
2023/03/26 12:10:32;;;;;;;4.38;0.88;;;22.00;36.50;;;;;;6147961;28;86241;-66
2023/03/26 12:13:33;;;;;;;3.80;1.30;;;21.70;36.90;;;;;;6118678;28;82698;-66
2023/03/26 12:16:34;;;;;;;2.92;1.50;;;21.90;36.40;;;;;;6152169;28;81319;-70
2023/03/26 12:19:35;;;;;;;1.45;1.20;;;21.70;36.70;;;;;;6121795;28;81707;-66
2023/03/26 12:22:36;;;;;;;4.13;1.63;;;21.80;37.50;;;;;;6141393;28;81446;-63
2023/03/26 12:25:37;;;;;;;1.70;1.25;;;22.30;38.50;;;;;;6141664;28;84614;-61
2023/03/26 12:28:37;;;;;;;2.22;1.00;;;22.60;38.40;;;;;;6142362;28;81183;-62
2023/03/26 12:31:40;;;;;;;2.30;1.30;;;22.90;38.70;;;;;;6148650;28;82336;-60
2023/03/26 12:34:40;;;;;;;3.20;0.90;;;23.00;38.90;;;;;;6152421;28;84501;-63
2023/03/26 12:37:43;;;;;;;2.38;1.15;;;23.20;38.80;;;;;;6151506;28;81752;-63
2023/03/26 12:40:43;;;;;;;3.20;1.40;;;23.20;39.10;;;;;;6153224;28;80342;-60
2023/03/26 12:43:46;;;;;;;6.78;1.42;;;23.30;39.00;;;;;;6134390;28;82705;-67
2023/03/26 12:46:47;;;;;;;4.13;1.70;;;23.50;39.10;;;;;;6152022;28;80258;-69
2023/03/26 12:49:47;;;;;;;4.05;1.60;;;23.50;39.20;;;;;;6151714;28;81113;-68
2023/03/26 12:52:48;;;;;;;2.70;1.70;;;23.50;39.40;;;;;;6152146;28;81884;-68
2023/03/26 12:55:49;;;;;;;19.23;2.05;;;23.60;39.70;;;;;;6151676;28;82296;-65
2023/03/26 12:58:52;;;;;;;7.05;2.45;;;23.60;40.00;;;;;;6150726;28;81527;-65
2023/03/26 13:01:52;;;;;;;7.43;2.33;;;23.70;40.90;;;;;;6139717;28;82608;-58
2023/03/26 13:04:53;;;;;;;6.05;1.50;;;23.70;41.60;;;;;;6151736;28;84342;-70
2023/03/26 13:07:54;;;;;;;7.13;1.48;;;23.70;41.40;;;;;;6151445;28;80746;-60
2023/03/26 13:10:55;;;;;;;13.45;2.55;;;23.80;41.50;;;;;;6146639;28;85478;-63
2023/03/26 13:13:55;;;;;;;5.45;2.05;;;23.80;41.50;;;;;;6150592;28;80344;-61
2023/03/26 13:16:56;;;;;;;6.65;2.00;;;23.90;41.50;;;;;;6150841;28;80570;-68
2023/03/26 13:19:56;;;;;;;5.10;1.75;;;23.90;42.40;;;;;;6148559;28;80368;-63
2023/03/26 13:22:57;;;;;;;4.03;1.55;;;23.90;42.40;;;;;;6149492;28;82064;-65
2023/03/26 13:25:57;;;;;;;4.82;1.75;;;23.90;42.90;;;;;;6143258;28;83188;-70
2023/03/26 13:28:58;;;;;;;12.13;2.03;;;23.90;42.90;;;;;;6149860;28;82045;-70
2023/03/26 13:31:59;;;;;;;3.35;1.60;;;23.90;42.90;;;;;;6151707;28;80377;-70
2023/03/26 13:35:00;;;;;;;4.78;1.77;;;23.70;41.30;;;;;;6150545;28;81709;-69
2023/03/26 13:38:01;;;;;;;2.78;1.38;;;23.40;40.30;;;;;;6137274;28;81747;-69
2023/03/26 13:41:02;;;;;;;5.82;2.00;;;23.30;40.70;;;;;;6150552;28;80570;-70
2023/03/26 13:44:02;;;;;;;2.58;1.52;;;23.20;40.20;;;;;;6150581;28;86339;-71
2023/03/26 13:47:03;;;;;;;3.47;1.63;;;23.00;40.10;;;;;;6151684;28;80836;-69
2023/03/26 13:50:03;;;;;;;2.92;1.70;;;22.70;39.30;;;;;;6150969;28;80634;-69
2023/03/26 13:53:04;;;;;;;4.25;1.67;;;22.60;39.80;;;;;;6151306;28;81384;-68
2023/03/26 13:56:05;;;;;;;3.28;1.90;;;22.60;39.80;;;;;;6152570;28;81224;-69
2023/03/26 13:59:06;;;;;;;20.27;1.60;;;22.10;39.40;;;;;;6152244;28;81342;-68
2023/03/26 14:02:07;;;;;;;2.17;1.15;;;22.20;39.40;;;;;;6154707;28;80460;-68
2023/03/26 14:05:07;;;;;;;2.40;1.40;;;22.20;39.00;;;;;;6122603;28;80910;-69
2023/03/26 14:08:08;;;;;;;2.53;1.27;;;22.00;39.10;;;;;;6153996;28;80987;-68
2023/03/26 14:11:09;;;;;;;2.03;1.30;;;21.90;39.60;;;;;;6152595;28;81064;-67
2023/03/26 14:14:10;;;;;;;2.97;1.50;;;22.10;39.90;;;;;;6152319;28;81509;-68
2023/03/26 14:17:11;;;;;;;2.42;1.50;;;22.00;39.30;;;;;;6152779;28;80734;-68
2023/03/26 14:20:11;;;;;;;5.47;1.52;;;22.10;39.80;;;;;;6153570;28;80879;-68
2023/03/26 14:23:12;;;;;;;4.20;1.83;;;22.00;39.00;;;;;;6148491;28;82198;-69
2023/03/26 14:26:12;;;;;;;2.92;1.65;;;22.00;39.30;;;;;;6153061;28;80576;-68
2023/03/26 14:29:13;;;;;;;3.33;1.58;;;22.00;40.00;;;;;;6152783;28;82324;-68
2023/03/26 14:32:13;;;;;;;3.25;1.27;;;22.10;40.10;;;;;;6153451;28;80634;-69
2023/03/26 14:35:14;;;;;;;2.63;1.30;;;22.10;40.20;;;;;;6124778;28;80644;-68
2023/03/26 14:38:15;;;;;;;3.95;1.60;;;22.20;39.80;;;;;;6149433;28;80448;-68
2023/03/26 14:41:15;;;;;;;2.83;1.55;;;22.20;40.00;;;;;;6146532;28;81580;-68
2023/03/26 14:44:16;;;;;;;2.78;1.23;;;22.20;40.30;;;;;;6146260;28;80419;-68
2023/03/26 14:47:16;;;;;;;3.85;1.50;;;22.20;40.00;;;;;;6152569;28;80829;-68
2023/03/26 14:50:19;;;;;;;1.25;1.10;;;22.20;39.40;;;;;;6151720;28;80921;-69
2023/03/26 14:53:19;;;;;;;2.28;1.20;;;22.30;40.10;;;;;;6151426;28;81147;-70
2023/03/26 14:56:20;;;;;;;6.93;1.25;;;22.30;40.10;;;;;;6150689;28;81961;-69
2023/03/26 14:59:20;;;;;;;3.42;1.50;;;22.20;39.60;;;;;;6151930;28;81265;-70
2023/03/26 15:02:21;;;;;;;2.70;1.77;;;22.10;39.30;;;;;;6151766;28;80567;-70
2023/03/26 15:05:22;;;;;;;3.30;1.55;;;22.00;39.30;;;;;;6153337;28;80231;-61
2023/03/26 15:08:22;;;;;;;3.45;1.63;;;22.00;39.30;;;;;;6151906;28;80614;-61
2023/03/26 15:11:23;;;;;;;2.88;1.67;;;21.90;39.20;;;;;;6151603;28;80679;-60
2023/03/26 15:14:23;;;;;;;2.90;1.60;;;21.90;39.60;;;;;;6150862;28;82907;-60
2023/03/26 15:17:24;;;;;;;2.75;1.63;;;21.90;39.30;;;;;;6152282;28;80954;-60
2023/03/26 15:20:25;;;;;;;2.03;1.55;;;21.90;39.50;;;;;;6151431;28;80330;-60
2023/03/26 15:23:26;;;;;;;3.20;1.60;;;21.90;39.70;;;;;;6147502;28;90267;-60
2023/03/26 15:26:27;;;;;;;2.25;1.63;;;22.00;39.30;;;;;;6152293;28;81787;-60
2023/03/26 15:29:28;;;;;;;1.42;1.15;;;22.00;39.60;;;;;;6151174;28;81212;-60
2023/03/26 15:32:29;;;;;;;4.45;1.85;;;21.90;39.60;;;;;;6150818;28;80578;-59
2023/03/26 15:35:30;;;;;;;2.58;1.42;;;22.00;40.20;;;;;;6150510;28;80084;-60
2023/03/26 15:38:30;;;;;;;3.60;1.88;;;21.90;39.30;;;;;;6151198;28;80375;-59
2023/03/26 15:41:31;;;;;;;3.50;1.92;;;21.90;39.40;;;;;;6151346;28;80605;-60
2023/03/26 15:44:31;;;;;;;4.35;2.10;;;21.90;39.20;;;;;;6149838;28;80366;-60
2023/03/26 15:47:32;;;;;;;2.90;1.70;;;21.80;39.30;;;;;;6152855;28;80319;-59
2023/03/26 15:50:32;;;;;;;3.25;1.50;;;21.90;39.40;;;;;;6150965;28;80602;-60
2023/03/26 15:53:33;;;;;;;3.05;1.80;;;21.80;39.20;;;;;;6149203;28;80491;-61
2023/03/26 15:56:34;;;;;;;2.58;1.38;;;21.80;39.10;;;;;;6152548;28;80328;-60